sim
Sign-in with your pilot id or email,
or register
Callsign
Passwort

Schedule Details

Flight Number: OEO8074
Departure: Vienna International Airport (LOWW) at 04:00
Arrival: Fuerteventura Airport (GCFV) at 09:30

Weather Information
Getting current METAR information for LOWW 160320Z 15004KT CAVOK M02/M04 Q1031 NOSIG
Getting current METAR information for GCFV 160330Z AUTO 28005KT 9999 NCD 14/11 Q1017

Schedule Frequency

Route Map